Tropical Cyclones
[Index]
Main Index Home Page Stock Weather Photos Extreme Storms Discussion Storm News and Storm Chasing Reports Tropical Cyclones / Hurricanes / Typhoons Weather Data and Links Wild Fires / Bushfires Weather Observation Techniques Weather Picture Catalogue Tornado Pictures and Reports Stock Video Footage and DVDs for sale
Season 1996-1997 Tropical Cyclone DRENA Track Map
Season 1996-1997 Summaries: [BoM-AU] [JTWC-AU] [JTWC-SIO] [JTWC-SPAC] [JTWC-SH]
<<- Previous TC | BoM 1996-1997 Season | Next TC ->>

click for intensity scale information  Lat/long Grid: Show Hide

 Date Labels: Show Hide

Bureau of Meteorology Tropical Cyclone Data

Name: DRENA
Number: 799 / 199697_08

03 Jan 1997 18:00 UTC to 09 Jan 1997 00:00 UTC

    date/time    lat    long    hPa   cat  kts
1997-01-03 18   15.1   162.5    990    1    41          
1997-01-04 00   14.8   161.5    980    2    51          
1997-01-04 06   15.2   160.7    975    2    60          
1997-01-04 12   15.6   160.2    970    3    60          
1997-01-04 18   15.3   159.6    965    3    60          
1997-01-05 00   15.2   159.5    955    4    60          
1997-01-05 06   15.6   159.2    945    4    91          
1997-01-05 12   15.8   158.9    945    4    91          
1997-01-05 18   16.1   158.5    940    4    91          
1997-01-06 00   16.5   158.6    935    4    91          
1997-01-06 06   17.0   158.7    935    4    91          
1997-01-06 12   17.4   159.4    940    4    86          
1997-01-06 18   17.9   160.1    945    4    86          
1997-01-07 00   18.1   161.0    945    4    86          
1997-01-07 06   19.4   162.3    945    4    86          
1997-01-07 12   20.2   163.3    945    4    86          
1997-01-07 18   20.9   164.4    950    4    82          
1997-01-08 00   22.2   165.3    950    4    82          
1997-01-08 06   23.5   166.5    960    3    82          
1997-01-08 12   25.3   167.0    970    3    76          
1997-01-08 18   26.3   167.4    970    3    76          
1997-01-09 00   28.1   168.3    970    3    70          
Winds are 10-min average.

Tropical cyclone tracks developed by Michael Bath using data from the Bureau of Meteorology and Google Maps.


[Australian Severe Weather index] [Copyright Notice] [Email Contacts] [Search This Site] [Privacy Policy]
Document: tropical_cyclone_drena.htm Updated: 30 May 2013